createdAt,value
2023-05-08T00:00:04.839Z,45.33
2023-05-08T00:02:33.173Z,44.40
2023-05-08T00:05:01.451Z,44.60
2023-05-08T00:07:29.741Z,46.10
2023-05-08T00:09:57.943Z,43.10
2023-05-08T00:12:26.092Z,44.60
2023-05-08T00:14:54.267Z,45.93
2023-05-08T00:17:23.777Z,48.43
2023-05-08T00:19:52.935Z,49.17
2023-05-08T00:22:21.559Z,48.40
2023-05-08T00:24:49.942Z,49.07
2023-05-08T00:27:18.206Z,50.47
2023-05-08T00:29:46.350Z,51.23
2023-05-08T00:32:14.607Z,47.93
2023-05-08T00:34:44.263Z,47.80
2023-05-08T00:37:12.397Z,48.73
2023-05-08T00:39:40.576Z,46.60
2023-05-08T00:42:08.791Z,46.30
2023-05-08T00:44:39.403Z,47.27
2023-05-08T00:47:07.837Z,46.93
2023-05-08T00:49:36.608Z,47.83
2023-05-08T00:52:08.721Z,46.43
2023-05-08T00:54:37.371Z,47.57
2023-05-08T00:57:07.724Z,48.10
2023-05-08T00:59:36.772Z,46.87
2023-05-08T01:02:05.967Z,46.97
2023-05-08T01:04:35.867Z,45.43
2023-05-08T01:07:04.500Z,46.43
2023-05-08T01:09:34.120Z,46.17
2023-05-08T01:12:09.202Z,46.80
2023-05-08T01:14:47.940Z,45.87
2023-05-08T01:17:19.313Z,47.80
2023-05-08T01:19:59.885Z,46.50
2023-05-08T01:22:35.605Z,46.13
2023-05-08T01:25:18.336Z,44.87
2023-05-08T01:28:03.842Z,47.27
2023-05-08T01:30:48.782Z,46.87
2023-05-08T01:33:22.585Z,45.83
2023-05-08T01:35:52.623Z,44.33
2023-05-08T01:38:24.304Z,45.20
2023-05-08T01:40:54.157Z,44.70
2023-05-08T01:43:26.988Z,46.60
2023-05-08T01:45:56.739Z,45.70
2023-05-08T01:48:29.978Z,45.90
2023-05-08T01:51:00.077Z,46.70
2023-05-08T01:53:30.447Z,44.77
2023-05-08T01:55:59.775Z,44.87
2023-05-08T01:58:28.757Z,45.60
2023-05-08T02:00:57.245Z,46.03
2023-05-08T02:03:27.627Z,45.57
2023-05-08T02:05:57.439Z,46.30
2023-05-08T02:08:26.829Z,46.20
2023-05-08T02:10:55.446Z,51.00
2023-05-08T02:13:24.020Z,51.37
2023-05-08T02:15:54.133Z,51.20
2023-05-08T02:18:23.317Z,54.00
2023-05-08T02:20:53.732Z,55.90
2023-05-08T02:23:22.608Z,52.90
2023-05-08T02:25:51.627Z,54.63
2023-05-08T02:28:20.581Z,54.23
2023-05-08T02:30:49.164Z,53.10
2023-05-08T02:33:18.429Z,54.00
2023-05-08T02:35:48.017Z,54.37
2023-05-08T02:38:18.928Z,52.70
2023-05-08T02:40:49.095Z,53.23
2023-05-08T02:43:17.260Z,50.87
2023-05-08T02:45:48.828Z,52.33
2023-05-08T02:48:21.815Z,51.67
2023-05-08T02:50:55.786Z,50.27
2023-05-08T02:53:27.785Z,51.73
2023-05-08T02:55:58.073Z,50.67
2023-05-08T02:58:31.277Z,51.23
2023-05-08T03:01:01.506Z,51.20
2023-05-08T03:03:34.797Z,51.67
2023-05-08T03:06:04.560Z,52.50
2023-05-08T03:08:35.877Z,52.67
2023-05-08T03:11:05.741Z,53.07
2023-05-08T03:13:36.306Z,53.30
2023-05-08T03:16:06.348Z,52.73
2023-05-08T03:18:36.543Z,49.13
2023-05-08T03:21:04.884Z,49.07
2023-05-08T03:23:36.048Z,50.07
2023-05-08T03:26:04.854Z,48.10
2023-05-08T03:28:33.625Z,49.87
2023-05-08T03:31:02.820Z,48.80
2023-05-08T03:33:31.315Z,49.40
2023-05-08T03:35:59.609Z,47.77
2023-05-08T03:38:27.800Z,46.40
2023-05-08T03:40:57.469Z,47.37
2023-05-08T03:43:26.363Z,45.37
2023-05-08T03:45:55.092Z,45.83
2023-05-08T03:48:23.913Z,42.80
2023-05-08T03:50:52.161Z,41.60
2023-05-08T03:53:20.301Z,41.20
2023-05-08T03:55:48.451Z,42.30
2023-05-08T03:58:23.030Z,43.63
2023-05-08T04:00:56.183Z,43.73
2023-05-08T04:03:26.089Z,44.87
2023-05-08T04:06:00.184Z,45.13
2023-05-08T04:08:30.319Z,46.00
2023-05-08T04:11:02.188Z,46.27
2023-05-08T04:13:33.323Z,46.00
2023-05-08T04:16:07.144Z,44.93
2023-05-08T04:18:38.124Z,43.20
2023-05-08T04:21:10.032Z,45.03
2023-05-08T04:23:38.457Z,44.40
2023-05-08T04:26:07.133Z,44.93
2023-05-08T04:28:36.698Z,44.07
2023-05-08T04:31:05.282Z,43.87
2023-05-08T04:33:35.180Z,43.87
2023-05-08T04:36:03.632Z,43.50
2023-05-08T04:38:31.855Z,42.13
2023-05-08T04:40:59.995Z,44.57
2023-05-08T04:43:28.150Z,45.57
2023-05-08T04:45:57.641Z,42.47
2023-05-08T04:48:25.961Z,39.10
2023-05-08T04:50:54.127Z,39.47
2023-05-08T04:53:22.289Z,42.17
2023-05-08T04:55:50.456Z,40.20
2023-05-08T04:58:18.666Z,33.90
2023-05-08T05:00:46.859Z,36.53
2023-05-08T05:03:16.464Z,33.63
2023-05-08T05:05:44.672Z,34.30
2023-05-08T05:08:12.825Z,34.30
2023-05-08T05:10:40.965Z,32.63
2023-05-08T05:13:09.178Z,34.50
2023-05-08T05:15:37.387Z,38.77
2023-05-08T05:18:05.689Z,37.70
2023-05-08T05:20:35.362Z,36.80
2023-05-08T05:23:03.719Z,33.27
2023-05-08T05:25:31.905Z,37.63
2023-05-08T05:28:00.058Z,39.53
2023-05-08T05:30:28.192Z,35.53
2023-05-08T05:32:56.332Z,36.80
2023-05-08T05:35:25.778Z,35.17
2023-05-08T05:37:55.778Z,38.07
2023-05-08T05:40:23.960Z,39.13
2023-05-08T05:42:52.415Z,42.50
2023-05-08T05:45:20.601Z,43.17
2023-05-08T05:47:50.087Z,43.07
2023-05-08T05:50:19.116Z,42.80
2023-05-08T05:52:47.352Z,36.53
2023-05-08T05:55:17.174Z,35.03
2023-05-08T05:57:45.309Z,30.87
2023-05-08T06:00:13.785Z,31.30
2023-05-08T06:02:42.615Z,31.50
2023-05-08T06:05:12.220Z,32.37
2023-05-08T06:07:40.798Z,41.60
2023-05-08T06:10:09.468Z,34.90
2023-05-08T06:12:39.020Z,32.07
2023-05-08T06:15:07.933Z,33.80
2023-05-08T06:17:36.107Z,31.40
2023-05-08T06:20:04.314Z,34.43
2023-05-08T06:22:32.490Z,34.70
2023-05-08T06:25:00.716Z,32.80
2023-05-08T06:27:28.893Z,30.53
2023-05-08T06:29:58.352Z,24.97
2023-05-08T06:32:26.541Z,25.10
2023-05-08T06:34:54.770Z,25.63
2023-05-08T06:37:22.982Z,24.43
2023-05-08T06:40:00.257Z,25.57
2023-05-08T06:42:38.798Z,29.23
2023-05-08T06:45:09.169Z,28.63
2023-05-08T06:47:37.421Z,27.77
2023-05-08T06:50:05.899Z,31.03
2023-05-08T06:52:34.301Z,34.57
2023-05-08T06:55:02.536Z,31.27
2023-05-08T06:57:30.704Z,33.07
2023-05-08T06:59:58.870Z,32.83
2023-05-08T07:02:28.450Z,35.27
2023-05-08T07:04:56.738Z,34.97
2023-05-08T07:07:24.872Z,33.30
2023-05-08T07:09:53.175Z,32.57
2023-05-08T07:12:21.379Z,31.90
2023-05-08T07:14:49.583Z,31.27
2023-05-08T07:17:17.752Z,35.90
2023-05-08T07:19:52.076Z,36.17
2023-05-08T07:22:21.168Z,32.63
2023-05-08T07:24:49.449Z,33.70
2023-05-08T07:27:17.617Z,31.80
2023-05-08T07:29:45.849Z,32.07
2023-05-08T07:32:15.298Z,34.67
2023-05-08T07:34:43.779Z,37.27
2023-05-08T07:37:13.341Z,37.17
2023-05-08T07:39:41.557Z,38.30
2023-05-08T07:42:09.782Z,42.57
2023-05-08T07:44:50.615Z,41.17
2023-05-08T07:47:22.592Z,41.37
2023-05-08T07:49:50.997Z,43.27
2023-05-08T07:52:20.532Z,42.77
2023-05-08T07:54:48.733Z,48.37
2023-05-08T07:57:16.887Z,53.73
2023-05-08T07:59:45.035Z,48.93
2023-05-08T08:02:13.270Z,51.97
2023-05-08T08:04:41.477Z,51.00
2023-05-08T08:07:09.699Z,55.13
2023-05-08T08:09:39.243Z,51.03
2023-05-08T08:12:07.587Z,50.53
2023-05-08T08:14:35.853Z,52.50
2023-05-08T08:17:04.119Z,56.17
2023-05-08T08:19:32.359Z,52.33
2023-05-08T08:22:00.508Z,54.57
2023-05-08T08:24:29.774Z,54.13
2023-05-08T08:26:59.306Z,57.93
2023-05-08T08:29:27.474Z,58.13
2023-05-08T08:31:55.645Z,60.27
2023-05-08T08:34:24.208Z,60.30
2023-05-08T08:36:52.402Z,59.87
2023-05-08T08:39:20.520Z,61.07
2023-05-08T08:41:48.885Z,57.57
2023-05-08T08:44:18.370Z,55.83
2023-05-08T08:46:51.728Z,56.33
2023-05-08T08:49:20.412Z,56.40
2023-05-08T08:51:52.501Z,49.50
2023-05-08T08:54:22.772Z,46.03
2023-05-08T08:56:51.640Z,45.30
2023-05-08T08:59:21.409Z,46.70
2023-05-08T09:01:52.270Z,43.17
2023-05-08T09:04:20.680Z,43.73
2023-05-08T09:06:51.096Z,39.47
2023-05-08T09:09:19.457Z,40.90
2023-05-08T09:11:48.006Z,41.43
2023-05-08T09:14:16.128Z,43.03
2023-05-08T09:16:46.052Z,41.37
2023-05-08T09:19:16.047Z,39.93
2023-05-08T09:21:44.397Z,41.33
2023-05-08T09:24:12.544Z,41.03
2023-05-08T09:26:41.293Z,40.27
2023-05-08T09:29:10.476Z,38.60
2023-05-08T09:31:40.292Z,36.67
2023-05-08T09:34:10.258Z,35.93
2023-05-08T09:36:40.050Z,35.63
2023-05-08T09:39:12.614Z,37.87
2023-05-08T09:41:41.136Z,37.30
2023-05-08T09:44:09.352Z,36.87
2023-05-08T09:46:37.559Z,30.90
2023-05-08T09:49:05.742Z,29.83
2023-05-08T09:51:35.242Z,32.70
2023-05-08T09:54:06.459Z,36.97
2023-05-08T09:56:35.560Z,40.40
2023-05-08T09:59:04.934Z,42.33
2023-05-08T10:01:33.845Z,37.20
2023-05-08T10:04:02.120Z,36.23
2023-05-08T10:06:30.370Z,43.73
2023-05-08T10:09:15.535Z,35.23
2023-05-08T10:11:47.869Z,34.03
2023-05-08T10:14:16.026Z,33.00
2023-05-08T10:16:45.575Z,33.23
2023-05-08T10:19:15.422Z,27.73
2023-05-08T10:21:45.181Z,26.60
2023-05-08T10:24:17.400Z,24.40
2023-05-08T10:26:53.822Z,24.65
2023-05-08T10:29:35.223Z,29.23
2023-05-08T10:32:04.508Z,29.27
2023-05-08T10:34:33.886Z,29.67
2023-05-08T10:37:02.255Z,25.83
2023-05-08T10:39:32.901Z,26.50
2023-05-08T10:42:01.233Z,24.13
2023-05-08T10:44:30.743Z,19.83
2023-05-08T10:47:02.689Z,19.00
2023-05-08T10:49:35.961Z,20.93
2023-05-08T10:52:10.942Z,28.85
2023-05-08T10:54:49.941Z,22.23
2023-05-08T10:57:18.129Z,20.27
2023-05-08T10:59:46.925Z,18.30
2023-05-08T11:02:15.535Z,15.73
2023-05-08T11:04:44.447Z,18.20
2023-05-08T11:07:12.792Z,17.30
2023-05-08T11:09:49.245Z,17.27
2023-05-08T11:12:21.909Z,21.98
2023-05-08T11:14:57.375Z,24.13
2023-05-08T11:17:26.442Z,30.80
2023-05-08T11:19:58.619Z,32.40
2023-05-08T11:22:30.890Z,33.75
2023-05-08T11:25:04.383Z,36.20
2023-05-08T11:27:33.218Z,38.58
2023-05-08T11:30:20.360Z,35.47
2023-05-08T11:32:58.106Z,30.52
2023-05-08T11:35:46.187Z,29.02
2023-05-08T11:38:18.114Z,31.85
2023-05-08T11:40:48.405Z,31.40
2023-05-08T11:43:27.038Z,33.63
2023-05-08T11:45:55.653Z,33.53
2023-05-08T11:48:24.085Z,32.38
2023-05-08T11:50:52.975Z,31.15
2023-05-08T11:53:21.237Z,32.28
2023-05-08T11:55:50.945Z,36.90
2023-05-08T11:58:19.498Z,30.98
2023-05-08T12:00:48.612Z,27.23
2023-05-08T12:03:18.597Z,25.63
2023-05-08T12:05:47.228Z,26.13
2023-05-08T12:08:16.049Z,23.20
2023-05-08T12:10:52.586Z,24.08
2023-05-08T12:13:21.779Z,26.95
2023-05-08T12:15:50.840Z,30.92
2023-05-08T12:18:19.209Z,30.42
2023-05-08T12:20:47.452Z,30.17
2023-05-08T12:23:15.669Z,30.30
2023-05-08T12:25:43.920Z,29.60
2023-05-08T12:28:13.440Z,29.50
2023-05-08T12:30:41.606Z,29.65
2023-05-08T12:33:10.122Z,30.63
2023-05-08T12:35:39.097Z,29.15
2023-05-08T12:38:07.742Z,25.25
2023-05-08T12:40:37.021Z,26.83
2023-05-08T12:43:05.656Z,26.70
2023-05-08T12:45:35.988Z,28.20
2023-05-08T12:48:04.860Z,29.55
2023-05-08T12:50:35.835Z,32.37
2023-05-08T12:53:05.336Z,33.08
2023-05-08T12:55:34.341Z,36.53
2023-05-08T12:58:03.772Z,36.00
2023-05-08T13:00:40.999Z,40.17
2023-05-08T13:03:09.993Z,40.53
2023-05-08T13:05:42.714Z,38.78
2023-05-08T13:08:11.791Z,43.22
2023-05-08T13:10:47.034Z,42.03
2023-05-08T13:13:15.547Z,40.05
2023-05-08T13:15:45.348Z,40.67
2023-05-08T13:18:13.573Z,42.10
2023-05-08T13:20:41.946Z,37.33
2023-05-08T13:23:10.498Z,35.35
2023-05-08T13:25:39.278Z,35.13
2023-05-08T13:28:08.244Z,33.90
2023-05-08T13:30:36.901Z,32.22
2023-05-08T13:33:06.724Z,41.50
2023-05-08T13:35:35.406Z,41.17
2023-05-08T13:38:03.941Z,42.53
2023-05-08T13:40:32.133Z,41.55
2023-05-08T13:43:00.420Z,36.58
2023-05-08T13:45:28.553Z,35.28
2023-05-08T13:47:56.862Z,32.08
2023-05-08T13:50:26.504Z,28.73
2023-05-08T13:52:55.473Z,27.23
2023-05-08T13:55:23.872Z,29.30
2023-05-08T13:57:52.065Z,28.50
2023-05-08T14:00:20.650Z,26.80
2023-05-08T14:02:50.765Z,27.48
2023-05-08T14:05:19.795Z,27.98
2023-05-08T14:07:49.318Z,28.27
2023-05-08T14:10:18.032Z,30.67
2023-05-08T14:12:46.735Z,27.02
2023-05-08T14:15:15.961Z,26.75
2023-05-08T14:17:44.442Z,24.58
2023-05-08T14:20:12.983Z,23.83
2023-05-08T14:22:41.187Z,24.35
2023-05-08T14:25:11.604Z,24.73
2023-05-08T14:27:39.937Z,24.50
2023-05-08T14:30:08.934Z,27.25
2023-05-08T14:32:37.232Z,29.88
2023-05-08T14:35:05.666Z,33.30
2023-05-08T14:37:33.910Z,32.33
2023-05-08T14:40:02.137Z,32.60
2023-05-08T14:42:31.692Z,32.17
2023-05-08T14:44:59.955Z,33.10
2023-05-08T14:47:28.216Z,32.45
2023-05-08T14:49:56.477Z,31.75
2023-05-08T14:52:24.647Z,31.60
2023-05-08T14:54:53.869Z,33.38
2023-05-08T14:57:22.392Z,32.47
2023-05-08T14:59:55.258Z,32.00
2023-05-08T15:02:23.784Z,31.57
2023-05-08T15:04:52.214Z,33.83
2023-05-08T15:07:20.493Z,32.95
2023-05-08T15:09:48.876Z,33.67
2023-05-08T15:12:17.056Z,36.90
2023-05-08T15:14:45.220Z,35.97
2023-05-08T15:17:14.794Z,35.23
2023-05-08T15:19:43.401Z,33.13
2023-05-08T15:22:11.552Z,34.28
2023-05-08T15:24:39.764Z,35.25
2023-05-08T15:27:09.852Z,33.83
2023-05-08T15:29:39.667Z,29.23
2023-05-08T15:32:07.991Z,27.33
2023-05-08T15:34:38.656Z,26.27
2023-05-08T15:37:08.787Z,26.17
2023-05-08T15:39:37.237Z,25.67
2023-05-08T15:42:05.941Z,24.63
2023-05-08T15:44:53.229Z,25.55
2023-05-08T15:47:23.033Z,24.45
2023-05-08T15:49:52.767Z,24.37
2023-05-08T15:52:21.151Z,24.53
2023-05-08T15:54:49.502Z,24.27
2023-05-08T15:57:17.853Z,22.17
2023-05-08T15:59:46.029Z,21.40
2023-05-08T16:02:14.253Z,20.00
2023-05-08T16:04:42.436Z,20.92
2023-05-08T16:07:11.947Z,19.97
2023-05-08T16:09:40.102Z,21.77
2023-05-08T16:12:08.599Z,19.93
2023-05-08T16:14:37.239Z,19.98
2023-05-08T16:17:07.891Z,21.45
2023-05-08T16:19:38.760Z,19.97
2023-05-08T16:22:06.989Z,19.55
2023-05-08T16:24:36.512Z,19.05
2023-05-08T16:27:04.684Z,19.92
2023-05-08T16:29:32.847Z,20.38
2023-05-08T16:32:00.978Z,20.70
2023-05-08T16:34:29.196Z,20.37
2023-05-08T16:36:58.412Z,21.10
2023-05-08T16:39:26.797Z,19.60
2023-05-08T16:41:56.258Z,19.90
2023-05-08T16:44:24.391Z,19.48
2023-05-08T16:46:52.562Z,20.25
2023-05-08T16:49:20.824Z,19.42
2023-05-08T16:51:48.994Z,19.63
2023-05-08T16:54:17.105Z,20.40
2023-05-08T16:56:45.372Z,19.35
2023-05-08T16:59:14.869Z,19.85
2023-05-08T17:01:43.103Z,20.37
2023-05-08T17:04:11.856Z,20.00
2023-05-08T17:06:40.626Z,20.45
2023-05-08T17:09:08.788Z,19.90
2023-05-08T17:11:36.936Z,20.27
2023-05-08T17:14:05.132Z,21.50
2023-05-08T17:16:34.745Z,20.13
2023-05-08T17:19:03.339Z,19.70
2023-05-08T17:21:32.126Z,20.27
2023-05-08T17:24:01.141Z,20.65
2023-05-08T17:26:29.457Z,20.70
2023-05-08T17:28:57.593Z,20.10
2023-05-08T17:31:25.828Z,20.90
2023-05-08T17:33:55.477Z,20.90
2023-05-08T17:36:23.706Z,21.77
2023-05-08T17:38:52.038Z,21.42
2023-05-08T17:41:20.596Z,21.23
2023-05-08T17:43:48.749Z,21.90
2023-05-08T17:46:17.083Z,22.80
2023-05-08T17:48:45.257Z,23.23
2023-05-08T17:51:15.257Z,23.13
2023-05-08T17:53:43.404Z,22.63
2023-05-08T17:56:11.729Z,23.10
2023-05-08T17:58:39.949Z,22.80
2023-05-08T18:01:08.458Z,22.43
2023-05-08T18:03:36.721Z,22.98
2023-05-08T18:06:04.902Z,22.63
2023-05-08T18:08:34.981Z,22.10
2023-05-08T18:11:03.160Z,21.88
2023-05-08T18:13:32.889Z,21.70
2023-05-08T18:16:01.082Z,22.80
2023-05-08T18:18:29.289Z,22.05
2023-05-08T18:20:57.426Z,23.00
2023-05-08T18:23:25.688Z,23.17
2023-05-08T18:25:55.257Z,22.50
2023-05-08T18:28:23.438Z,20.98
2023-05-08T18:30:51.674Z,19.50
2023-05-08T18:33:19.875Z,19.48
2023-05-08T18:35:48.094Z,19.33
2023-05-08T18:38:17.550Z,17.35
2023-05-08T18:40:46.305Z,17.02
2023-05-08T18:43:15.836Z,16.60
2023-05-08T18:45:44.039Z,16.10
2023-05-08T18:48:12.724Z,15.13
2023-05-08T18:50:40.852Z,14.97
2023-05-08T18:53:09.908Z,15.25
2023-05-08T18:55:38.114Z,13.38
2023-05-08T18:58:06.458Z,14.27
2023-05-08T19:00:35.991Z,13.43
2023-05-08T19:03:04.278Z,13.20
2023-05-08T19:05:32.520Z,13.20
2023-05-08T19:08:00.713Z,12.80
2023-05-08T19:10:28.949Z,12.00
2023-05-08T19:12:57.112Z,13.10
2023-05-08T19:15:25.272Z,12.48
2023-05-08T19:17:54.820Z,12.83
2023-05-08T19:20:23.123Z,12.25
2023-05-08T19:22:51.288Z,12.45
2023-05-08T19:25:19.436Z,12.85
2023-05-08T19:27:47.718Z,11.87
2023-05-08T19:30:16.255Z,11.17
2023-05-08T19:32:44.687Z,11.93
2023-05-08T19:35:14.214Z,11.30
2023-05-08T19:37:42.385Z,10.43
2023-05-08T19:40:11.145Z,11.17
2023-05-08T19:42:39.532Z,10.40
2023-05-08T19:45:08.273Z,8.23
2023-05-08T19:47:36.404Z,8.53
2023-05-08T19:50:04.611Z,7.70
2023-05-08T19:52:34.204Z,7.60
2023-05-08T19:55:02.417Z,8.20
2023-05-08T19:57:30.666Z,7.93
2023-05-08T19:59:58.887Z,7.90
2023-05-08T20:02:27.245Z,7.30
2023-05-08T20:05:21.734Z,6.83
2023-05-08T20:07:44.975Z,7.10
2023-05-08T20:10:13.396Z,7.17
2023-05-08T20:12:41.656Z,7.47
2023-05-08T20:15:10.468Z,7.27
2023-05-08T20:17:38.726Z,6.93
2023-05-08T20:20:07.585Z,7.50
2023-05-08T20:22:35.750Z,6.67
2023-05-08T20:25:05.582Z,6.80
2023-05-08T20:27:33.750Z,7.00
2023-05-08T20:30:01.963Z,6.30
2023-05-08T20:32:30.143Z,6.23
2023-05-08T20:34:58.374Z,5.80
2023-05-08T20:37:26.537Z,5.93
2023-05-08T20:39:54.766Z,6.17
2023-05-08T20:42:24.260Z,5.70
2023-05-08T20:44:52.449Z,5.30
2023-05-08T20:47:20.736Z,5.60
2023-05-08T20:49:48.914Z,5.83
2023-05-08T20:52:17.150Z,5.53
2023-05-08T20:54:46.423Z,6.13
2023-05-08T20:57:15.664Z,4.60
2023-05-08T20:59:47.182Z,5.03
2023-05-08T21:02:15.334Z,4.90
2023-05-08T21:04:43.571Z,4.30
2023-05-08T21:07:11.877Z,4.60
2023-05-08T21:09:40.123Z,4.97
2023-05-08T21:12:09.819Z,4.90
2023-05-08T21:14:38.095Z,4.67
2023-05-08T21:17:07.648Z,4.60
2023-05-08T21:19:37.431Z,4.73
2023-05-08T21:22:07.488Z,4.73
2023-05-08T21:24:36.103Z,4.20
2023-05-08T21:27:04.427Z,4.87
2023-05-08T21:29:32.600Z,4.83
2023-05-08T21:32:00.832Z,4.83
2023-05-08T21:34:30.423Z,4.70
2023-05-08T21:36:58.599Z,5.30
2023-05-08T21:39:26.766Z,5.20
2023-05-08T21:41:54.940Z,4.80
2023-05-08T21:44:23.077Z,5.70
2023-05-08T21:46:51.418Z,5.00
2023-05-08T21:49:19.666Z,5.20
2023-05-08T21:51:49.217Z,5.43
2023-05-08T21:54:17.348Z,5.10
2023-05-08T21:56:45.570Z,4.93
2023-05-08T21:59:13.726Z,5.47
2023-05-08T22:01:42.011Z,4.90
2023-05-08T22:04:10.174Z,5.07
2023-05-08T22:06:38.325Z,5.50
2023-05-08T22:09:07.927Z,6.23
2023-05-08T22:11:36.097Z,5.20
2023-05-08T22:14:04.340Z,6.33
2023-05-08T22:16:32.564Z,6.27
2023-05-08T22:19:00.828Z,6.00
2023-05-08T22:21:30.174Z,7.33
2023-05-08T22:23:58.552Z,7.77
2023-05-08T22:26:28.655Z,7.30
2023-05-08T22:28:57.044Z,8.17
2023-05-08T22:31:25.265Z,8.10
2023-05-08T22:33:53.485Z,8.80
2023-05-08T22:36:23.757Z,9.07
2023-05-08T22:38:52.124Z,9.27
2023-05-08T22:41:20.291Z,10.77
2023-05-08T22:43:49.847Z,10.33
2023-05-08T22:46:18.373Z,11.07
2023-05-08T22:48:46.838Z,11.13
2023-05-08T22:51:15.021Z,13.40
2023-05-08T22:53:43.248Z,12.70
2023-05-08T22:56:11.560Z,13.43
2023-05-08T22:58:39.694Z,13.90
2023-05-08T23:01:09.184Z,15.80
2023-05-08T23:03:37.362Z,16.00
2023-05-08T23:06:05.564Z,16.50
2023-05-08T23:08:33.719Z,16.47
2023-05-08T23:11:01.900Z,17.57
2023-05-08T23:13:30.066Z,17.63
2023-05-08T23:15:58.301Z,18.90
2023-05-08T23:18:27.836Z,19.70
2023-05-08T23:20:56.009Z,19.77
2023-05-08T23:23:24.162Z,19.93
2023-05-08T23:25:52.332Z,19.83
2023-05-08T23:28:20.478Z,21.40
2023-05-08T23:30:48.607Z,21.60
2023-05-08T23:33:16.812Z,21.40
2023-05-08T23:35:46.396Z,22.27
2023-05-08T23:38:14.601Z,21.50
2023-05-08T23:40:42.732Z,21.70
2023-05-08T23:43:10.899Z,23.10
2023-05-08T23:45:39.218Z,23.23
2023-05-08T23:48:07.599Z,21.83
2023-05-08T23:50:35.888Z,22.63
2023-05-08T23:53:05.451Z,21.70
2023-05-08T23:55:33.570Z,21.80
2023-05-08T23:58:01.850Z,22.50
